If you wish to contribute or participate in the discussions about articles you are invited to join SKYbrary as a registered user

 Actions

Cooma Snowy Mountains Airport

From SKYbrary Wiki

YCOM
Airport
ICAO: YCOM – IATA: OOM
Summary
Name Cooma Snowy Mountains Airport
Region Asia and Pacific
Territory "YC" is not in the list (AG, AN, AY, BG, BI, BK, C, CT, DA, DB, ...) of allowed values for the "ICAO Territory" property.
Location , New South Wales
Serving Cooma
Elevation 941.222 m
3,088 ft
3,088 ft941.222 m
Type medium airport
Coordinates 36° 18' 2.16" S, 148° 58' 26.40" E
Runways
Designator Length Width Surface ROPS
14/32 622 m2,040.682 ft
18 m59.055 ft
GVL /
18/36 2120 m6,955.381 ft
45 m147.638 ft
ASP /


METAR
Observation YCOM 161600Z AUTO 07002KT 9999 // NCD M02/M03 Q1017
Station Cooma Snowy Mountains Airport
Date/Time 16 July 2019 16:00:00
Wind direction 70°
Wind speed 02 kts
Lowest cloud amount no clouds detected
Temperature
Dew point
Humidity 92%
QNH 1017 hPa
Weather condition n/a